x

Cape Elizabeth- 45nm Nw Of Aberdeen, Wa (46041) Wave Buoy

3:50 - Mon 24th Apr 2017 All times are PDT. -7 hours from GMT.

  • Sig Wave height 7.2ft
  • Swell Direction
  • Peak Period 12s
  • Average Period 7s
  • Wind
    9mph, 13mph gusts
  • Sea Temp 51°f
  • Aire Temp 48°f
  • Sea Pressure 1005.7mb
  • Cape Elizabeth- 45nm Nw Of Aberdeen, Wa
  • Cape Elizabeth- 45nm Nw Of Aberdeen, Wa

More Historic Weather Station data

Upgrade to MSW Pro to gain access to the past 30 days of data for over 8000 Wavebouys and Weather Stations around the globe.

Join Pro

Comparision Forecast

View Surf forecast
   
lun 04/24 3:50 7ft 12s 7s 9 13 mph 1005.7mb 51f 48f
2:50 7ft 13s 7s 4 9 mph 1006.1mb 51f 46f
1:50 7ft 11s 7s 9 11 mph 1006.5mb 51f 48f
12:50 7ft 11s 7s 11 13 mph 1006.7mb 51f 48f
dom 04/23 11:50 8ft 12s 7s 9 11 mph 1007.2mb 51f 48f
10:50 8.5ft 13s 7s 13 16 mph 1007.5mb 51f 49f
9:50 7ft 11s 7s 11 13 mph 1007.9mb 51f 48f
8:50 8ft 11s 7s 16 18 mph 1007.9mb 51f 47f
7:50 7.5ft 13s 7s 13 18 mph 1008mb 51f 49f
6:50 7.5ft 11s 7s 16 18 mph 1008.4mb 51f 48f
5:50 7ft 11s 7s 18 20 mph 1008.6mb 51f 49f
4:50 7ft 11s 7s 18 22 mph 1008.9mb 51f 49f
3:50 7ft 13s 7s 18 22 mph 1009.1mb 51f 50f
2:50 7.5ft 11s 7s 16 18 mph 1009.1mb 51f 49f
1:50 7.5ft 12s 7s 16 18 mph 1009.1mb 51f 50f
12:50 8.5ft 12s 7s 16 18 mph 1009mb 51f 49f
11:50 8ft 12s 7s 18 22 mph 1008.8mb 51f 49f
10:50 9ft 12s 7s 16 20 mph 1008.6mb 51f 50f
9:50 9ft 11s 7s 22 27 mph 1008.8mb 51f 49f
8:50 8.5ft 12s 7s 20 25 mph 1009.4mb 51f 50f
7:50 9ft 11s 8s 13 16 mph 1010.2mb 51f 50f
6:50 9ft 11s 8s 13 16 mph 1010.7mb 51f 49f
5:50 9ft 11s 8s 11 16 mph 1011.2mb 51f 50f
4:50 8.5ft 11s 8s 4 7 mph 1012mb 51f 49f
3:50 9ft 11s 8s 7 9 mph 1012.5mb 51f 49f
2:50 9.5ft 12s 8s 13 18 mph 1013.2mb 51f 49f
1:50 9ft 14s 8s 7 11 mph 1013.5mb 51f 51f
12:50 9.5ft 11s 8s 13 18 mph 1013.4mb 51f 50f
sáb 04/22 11:50 9.5ft 13s 7s 13 16 mph 1013.2mb 51f 50f
10:50 9ft 8s 7s 13 16 mph 1013.4mb 51f 51f
9:50 9ft 12s 7s 13 16 mph 1013.3mb 51f 49f
8:50 10ft 12s 7s 11 18 mph 1013mb 51f 50f
7:50 11ft 11s 7s 18 22 mph 1012.6mb 51f 51f
6:50 11ft 11s 7s 18 22 mph 1012.3mb 51f 50f
4:50 11ft 10s 7s 22 27 mph 1011.6mb 51f 51f
3:50 10.5ft 11s 7s 25 29 mph 1011mb 51f 51f
2:50 10ft 11s 7s 25 29 mph 1009.6mb 51f 51f
1:50 9.5ft 12s 7s 27 31 mph 1008.1mb 51f 51f
12:50 8.5ft 12s 7s 27 34 mph 1007.2mb 51f 50f
11:50 8ft 12s 7s 25 29 mph 1007.1mb 51f 49f
10:50 6ft 12s 6s 25 29 mph 1007.6mb 51f 50f
9:50 5ft 13s 6s 22 29 mph 1007.1mb 51f 50f
8:50 4.5ft 12s 6s 18 20 mph 1007.5mb 51f 49f
7:50 4.5ft 14s 5s 25 29 mph 1006.9mb 51f 52f
6:50 3.5ft 14s 5s 20 22 mph 1005.8mb 51f 55f
4:50 3.5ft 19s 5s 13 16 mph 1006.4mb 51f 55f
3:50 3.5ft 19s 5s 16 18 mph 1007.1mb 52f 56f
2:50 3.5ft 10s 5s 16 18 mph 1008.1mb 52f 56f
1:50 3.5ft 9s 5s 18 22 mph 1009.5mb 52f 57f
12:50 3.5ft 8s 5s 20 25 mph 1010.3mb 52f 57f
vie 04/21 11:50 3.5ft 8s 7s 18 20 mph 1011.2mb 52f 57f
10:50 3.5ft 10s 7s 7 9 mph 1012.7mb 53f 55f
9:50 3.5ft 10s 7s 11 13 mph 1013.5mb 52f 54f
8:50 3.5ft 9s 7s 9 11 mph 1014.6mb 52f 53f
7:50 3.5ft 10s 7s 11 13 mph 1015.8mb 52f 52f
6:50 4ft 11s 7s 11 13 mph 1017.3mb 53f 52f
4:50 4.5ft 9s 7s 9
mph
1019.6mb 53f 52f
3:50 5ft 10s 7s 9
mph
1020.6mb 52f 52f
2:50 5ft 11s 7s 7 9 mph 1022.1mb 52f 51f
1:50 5ft 10s 7s 4 9 mph 1023.3mb 52f 52f
12:50 5ft 9s 7s 9 11 mph 1024.1mb 51f 53f
11:50 6ft 11s 7s 11 13 mph 1025.1mb 51f 51f
10:50 6ft 9s 7s 11 16 mph 1026.3mb 51f 49f
9:50 6.5ft 11s 7s 13 16 mph 1027.1mb 51f 48f
8:50 6ft 11s 7s 13 16 mph 1027.8mb 51f 48f
7:50 6.5ft 12s 7s 16 18 mph 1028.1mb 51f 48f
5:50 6ft 10s 7s 11 13 mph 1028.4mb 51f 48f
4:50 6ft 11s 7s 11 13 mph 1028.7mb 51f 48f
3:50 6ft 12s 8s 7 9 mph 1028.8mb 51f 50f
2:50 6ft 12s 8s 7
mph
1029.2mb 51f 50f
1:50 6ft 12s 8s 7
mph
1029.3mb 51f 50f
12:50 6.5ft 11s 8s 4 7 mph 1029.4mb 51f 50f
jue 04/20 11:50 6.5ft 12s 8s 7 9 mph 1029.3mb 51f 50f
10:50 7ft 11s 8s 7 9 mph 1029.1mb 51f 50f
9:50 7.5ft 11s 8s 7 9 mph 1028.6mb 51f 50f
8:50 8ft 11s 8s 7 9 mph 1027.7mb 51f 50f
7:50 8ft 11s 8s 9
mph
1027.2mb 51f 51f
6:50 8ft 12s 8s 9 11 mph 1026.8mb 51f 51f
5:50 8.5ft 12s 8s 9 11 mph 1026.4mb 51f 51f
4:50 8.5ft 11s 8s 11 16 mph 1026.2mb 51f 51f
3:50 8ft 11s 8s 16 20 mph 1025.6mb 51f 51f
2:50 8.5ft 12s 8s 9
mph
1025mb 52f 51f
1:50 8.5ft 11s 8s 11 16 mph 1024.1mb 52f 51f
12:50 8ft 11s 8s 11 13 mph 1023.8mb 51f 51f
11:50 8ft 11s 8s 11 13 mph 1023mb 51f 50f